SKBOMPTO

Guest
Details From SKBO - Eldorado Intl
To MPTO - Tocumen Intl
Flight Number -
Tags Generated
Created
Modified
Stats Distance 407 nm / 753 km
Max Altitude 0 ft / 0 m
Waypoints 3
Social Downloads 5
Likes 0
Share VATSIM

Download

Looking for another format? Having issues loading an existing format? Contact us
Advertisement - Login to hide

Notes

Generated

Route

SKBO TUM31 MPTO

ID Type Via Altitude Latitude Longitude Leg Dist Tot Dist Heading (true) Name
O SKBO APT - 0 ft / 0 m 4.71050˚ -74.16917˚ - 0 nm - -
TUM31 FIX - 0 ft / 0 m 9.07333˚ -79.38742˚ 406 nm 406 nm 310° / 310° -
O MPTO APT - 0 ft / 0 m 9.07368˚ -79.38881˚ 0 nm 406 nm 284° / 284° -

Altitude Profile

Advertisement - Login to hide

Weather


0- 5 10 15 20 25 30 35+ Temperature / ° C

Clouds and Precipitation
Forecast for 2017-12-11 06:00 UTC. Updated an hour ago

Ground ~20,000 ft ~40,000 ft Winds

SKBO

Details ICAO SKBO (BOG)
Name Bogota - El Dorado Intl
Region Colombia
Timezone America/Bogota (UTC-5.0)
Stats Elevation 8,361 ft / 2,548 m (AMSL)
Location 4.701594° -74.146946°
Runways 2
Magnetic Variation 7.265° W

METAR

SKBO 110200Z 32004KT 9999 FEW017 BKN070 12/11 A3035

Decode

TAF

Not found

Departure Runways

ID Width Length Bearing (true) Bearing (mag) Surface Threshold Offset Overrun Length
13L 148 ft / 45 m 12,482 ft / 3,804 m 127.21° 134.48° Asphalt 0 ft / 0 m 0 ft / 0 m
13R 148 ft / 45 m 12,494 ft / 3,808 m 127.23° 134.50° Asphalt 0 ft / 0 m 200 ft / 61 m
31L 148 ft / 45 m 12,494 ft / 3,808 m 307.23° 314.50° Asphalt 0 ft / 0 m 190 ft / 58 m
31R 148 ft / 45 m 12,482 ft / 3,804 m 307.21° 314.48° Asphalt 0 ft / 0 m 0 ft / 0 m

MPTO

Details ICAO MPTO (PTY)
Name Tocumen Intl
Region Panama
Timezone America/Panama (UTC-5.0)
Stats Elevation 135 ft / 41 m (AMSL)
Location 9.071364° -79.383458°
Runways 2
Magnetic Variation 4.530° W

METAR

MPTO 110200Z 29004KT 9999 SCT018 SCT090 26/25 Q1011 NOSIG

Decode

TAF

TAF MPTO 101700Z 1018/1124 18008KT 9999 SCT018 SCT090 PROB30 TEMPO 1018/1022 7000 -TSRA SCT015CB SCT080

Decode

Destination Runways

ID Width Length Bearing (true) Bearing (mag) Surface Threshold Offset Overrun Length
03L 200 ft / 61 m 8,798 ft / 2,682 m 30.67° 35.20° Asphalt 0 ft / 0 m 0 ft / 0 m
03R 148 ft / 45 m 10,008 ft / 3,051 m 29.33° 33.86° Concrete 0 ft / 0 m 198 ft / 60 m
21L 148 ft / 45 m 10,008 ft / 3,051 m 209.33° 213.86° Concrete 0 ft / 0 m 198 ft / 60 m
21R 200 ft / 61 m 8,798 ft / 2,682 m 210.67° 215.20° Asphalt 0 ft / 0 m 0 ft / 0 m

Approach Navaids

Runway Type Ident Frequency Range Bearing (true) Bearing (mag) Slope Elevation
03R Localiser INAT 110.70 MHz 18 nm / 33 km 29.33° 33.86° - 50 ft / 15 m (AMSL)
03R Glidescope INAT 110.70 MHz 10 nm / 19 km 29.33° 33.86° 3.00° 50 ft / 15 m (AMSL)
03R DME INAT 110.70 MHz 18 nm / 33 km - - - 50 ft / 15 m (AMSL)

Popular Alternatives